Sutherlin, Oregon
Current Conditions -  °F | °C
As of 7:53 PM on Thursday 18 Dec 2014 (Local Time) from KRBG Reporting Station
Overcast Overcast  
Wind Chill: 58°   Ceiling: 6000
Heat Index: 58°   Visibility: 10mi
Dew Point: 39°   Wind: 10mph
Humidity: 49%   Direction: 160°SSE
Pressure: 29.86"   Gusts: NA
Location:  43.39°N, 123.31°W
Report Text: KRBG 190353Z AUTO 16009KT 10SM OVC060 14/04 A2986 RMK AO2 SLP111 T01440039
Loading
Personal Weather Stations






























Interactive Weather Map New forecast layout! Learn more

10-Day Weather Forecast

Advertisements
Track Severe Weather on mobile